Time;durP1;ratioP1;P1;durP2;ratioP2;P2;SDS_P1;SDS_P2;PMS_P1;PMS_P2;Temp;Humidity;BMP_temperature;BMP_pressure;BME280_temperature;BME280_humidity;BME280_pressure;Samples;Min_cycle;Max_cycle;Signal;HPM_P1;HPM_P2
2024/01/10 00:01:55;;;;;;;17.30;9.90;;;;;;;-8.93;100.00;98745.83;110549;1241;71788;-73
2024/01/10 00:04:26;;;;;;;20.20;10.50;;;;;;;-8.95;98.09;98748.14;110574;1242;69812;-73
2024/01/10 00:06:56;;;;;;;;;;;;;;;-9.00;90.87;98743.97;110422;1240;69381;-74
2024/01/10 00:09:28;;;;;;;13.20;8.10;;;;;;;-9.05;88.37;98747.07;110389;1243;59728;-74
2024/01/10 00:11:59;;;;;;;21.10;11.80;;;;;;;-9.10;85.50;98744.55;110462;1241;59674;-74
2024/01/10 00:14:28;;;;;;;21.00;13.20;;;;;;;-9.11;82.67;98751.10;110422;1239;70428;-74
2024/01/10 00:16:59;;;;;;;22.50;13.40;;;;;;;-9.10;78.88;98752.98;110387;1238;68456;-74
2024/01/10 00:19:31;;;;;;;13.60;9.80;;;;;;;-9.12;77.11;98754.63;110362;1248;69158;-74
2024/01/10 00:22:00;;;;;;;16.60;9.30;;;;;;;-9.13;88.87;98760.02;110400;1242;59682;-74
2024/01/10 00:24:30;;;;;;;10.80;6.50;;;;;;;-9.16;91.33;98761.11;110368;1247;59646;-74
2024/01/10 00:26:59;;;;;;;16.00;8.50;;;;;;;-9.19;91.93;98765.95;110374;1239;70675;-73
2024/01/10 00:29:30;;;;;;;11.70;8.40;;;;;;;-9.21;95.23;98764.85;110419;1241;69161;-74
2024/01/10 00:31:59;;;;;;;11.00;8.50;;;;;;;-9.24;95.97;98768.36;110389;1243;67541;-74
2024/01/10 00:34:30;;;;;;;12.20;7.80;;;;;;;-9.26;93.28;98766.09;110330;1244;59689;-74
2024/01/10 00:37:00;;;;;;;17.40;11.60;;;;;;;-9.29;96.38;98764.84;110412;1242;59694;-73
2024/01/10 00:39:30;;;;;;;8.80;6.30;;;;;;;-9.30;92.48;98761.92;110390;1243;71233;-74
2024/01/10 00:42:02;;;;;;;16.50;9.40;;;;;;;-9.32;85.95;98764.55;110390;1241;68452;-74
2024/01/10 00:44:32;;;;;;;22.50;11.70;;;;;;;-9.35;81.43;98766.52;110376;1248;69231;-74
2024/01/10 00:47:02;;;;;;;11.50;6.00;;;;;;;-9.36;76.53;98766.66;110427;1241;59707;-73
2024/01/10 00:49:32;;;;;;;15.60;10.40;;;;;;;-9.36;83.86;98759.41;110398;1241;59721;-73
2024/01/10 00:52:02;;;;;;;;;;;;;;;-9.34;90.93;98756.74;110377;1241;71712;-74
2024/01/10 00:54:32;;;;;;;13.80;9.40;;;;;;;-9.33;97.32;98756.77;110381;1241;68316;-74
2024/01/10 00:57:02;;;;;;;8.90;6.10;;;;;;;-9.35;93.43;98755.02;110423;1247;67525;-73
2024/01/10 00:59:34;;;;;;;10.20;5.20;;;;;;;-9.39;93.35;98756.61;110401;1241;59732;-74
2024/01/10 01:02:06;;;;;;;18.70;10.50;;;;;;;-9.42;88.92;98755.85;110405;1241;59700;-74
2024/01/10 01:04:37;;;;;;;15.30;7.40;;;;;;;-9.44;84.58;98752.91;110404;1243;71879;-74
2024/01/10 01:07:10;;;;;;;12.10;6.00;;;;;;;-9.46;88.32;98756.08;110595;1249;69240;-73
2024/01/10 01:09:41;;;;;;;26.60;14.80;;;;;;;-9.45;99.02;98758.47;110502;1241;68536;-72
2024/01/10 01:12:13;;;;;;;12.00;8.10;;;;;;;-9.47;95.22;98757.90;110379;1238;59679;-73
2024/01/10 01:14:45;;;;;;;8.70;5.00;;;;;;;-9.47;94.30;98760.42;110425;1240;59601;-74
2024/01/10 01:17:16;;;;;;;17.70;8.70;;;;;;;-9.50;89.53;98748.38;110449;1242;71219;-73
2024/01/10 01:19:48;;;;;;;29.60;18.40;;;;;;;-9.52;91.51;98754.23;110469;1240;68465;-74
2024/01/10 01:22:19;;;;;;;13.30;8.50;;;;;;;-9.55;84.59;98750.11;110453;1238;69292;-74
2024/01/10 01:24:50;;;;;;;24.10;13.00;;;;;;;-9.58;89.63;98749.16;110378;1242;59756;-74
2024/01/10 01:27:21;;;;;;;9.50;6.60;;;;;;;-9.62;86.26;98748.86;110490;1242;59785;-74
2024/01/10 01:29:51;;;;;;;8.80;5.70;;;;;;;-9.68;90.44;98750.23;110461;1241;71257;-74
2024/01/10 01:32:22;;;;;;;13.00;7.70;;;;;;;-9.70;97.84;98749.67;110473;1240;69230;-74
2024/01/10 01:34:54;;;;;;;12.10;8.10;;;;;;;-9.72;100.00;98746.05;110423;1239;68569;-74
2024/01/10 01:37:24;;;;;;;;;;;;;;;-9.73;100.00;98748.23;110421;1241;59689;-74
2024/01/10 01:39:58;;;;;;;14.80;10.00;;;;;;;-9.71;100.00;98743.38;110362;1248;59682;-73
2024/01/10 01:42:29;;;;;;;15.20;10.30;;;;;;;-9.75;98.93;98740.23;110447;1243;70501;-73
2024/01/10 01:45:00;;;;;;;9.80;6.20;;;;;;;-9.84;98.36;98735.12;110440;1243;68574;-74
2024/01/10 01:47:32;;;;;;;20.00;11.10;;;;;;;-9.85;99.45;98733.55;110247;1243;69137;-74
2024/01/10 01:50:06;;;;;;;18.00;9.80;;;;;;;-9.86;99.48;98731.32;110399;1241;59696;-74
2024/01/10 01:52:38;;;;;;;13.70;9.50;;;;;;;-9.87;100.00;98731.98;110469;1242;59703;-74
2024/01/10 01:55:10;;;;;;;13.50;8.20;;;;;;;-9.87;100.00;98738.57;110422;1242;71384;-74
2024/01/10 01:57:41;;;;;;;11.70;6.00;;;;;;;-9.88;100.00;98737.54;110417;1242;69316;-74
2024/01/10 02:00:12;;;;;;;14.40;9.30;;;;;;;-9.91;100.00;98735.40;110359;1245;69076;-74
2024/01/10 02:02:44;;;;;;;17.40;10.70;;;;;;;-9.93;99.74;98742.26;110368;1241;59744;-74
2024/01/10 02:05:15;;;;;;;10.50;6.80;;;;;;;-10.00;97.02;98736.48;110399;1242;59744;-74
2024/01/10 02:07:46;;;;;;;9.60;7.10;;;;;;;-10.05;93.86;98735.14;110385;1243;71466;-74
2024/01/10 02:10:19;;;;;;;17.60;11.20;;;;;;;-10.11;93.33;98734.81;110427;1241;69154;-74
2024/01/10 02:12:50;;;;;;;14.50;9.20;;;;;;;-10.15;96.12;98734.54;110356;1242;69198;-74
2024/01/10 02:15:19;;;;;;;10.00;5.30;;;;;;;-10.18;97.17;98733.57;110376;1241;59664;-74
2024/01/10 02:17:49;;;;;;;16.60;10.20;;;;;;;-10.19;99.91;98729.85;110421;1244;59697;-74
2024/01/10 02:20:22;;;;;;;11.10;8.30;;;;;;;-10.17;100.00;98729.55;110366;1242;71287;-74
2024/01/10 02:22:52;;;;;;;14.60;9.50;;;;;;;-10.18;100.00;98731.21;110404;1243;69162;-74
2024/01/10 02:25:26;;;;;;;18.10;12.00;;;;;;;-10.17;100.00;98732.92;110359;1242;68536;-74
2024/01/10 02:28:01;;;;;;;10.00;6.00;;;;;;;-10.20;100.00;98731.17;110420;1242;59734;-74
2024/01/10 02:30:32;;;;;;;36.30;18.50;;;;;;;-10.22;100.00;98727.89;110426;1239;59667;-74
2024/01/10 02:33:02;;;;;;;14.70;9.10;;;;;;;-10.24;99.88;98728.71;110382;1249;71766;-74
2024/01/10 02:35:40;;;;;;;17.30;10.30;;;;;;;-10.21;100.00;98729.11;110417;1242;67413;-75
2024/01/10 02:38:11;;;;;;;22.90;12.30;;;;;;;-10.19;100.00;98733.88;110351;1242;69964;-74
2024/01/10 02:40:43;;;;;;;23.50;13.50;;;;;;;-10.18;100.00;98733.41;110463;1242;59683;-74
2024/01/10 02:43:13;;;;;;;14.30;8.60;;;;;;;-10.17;99.22;98731.23;110518;1240;59743;-74
2024/01/10 02:45:44;;;;;;;21.30;13.10;;;;;;;-10.17;97.64;98732.58;110532;1240;71606;-74
2024/01/10 02:48:15;;;;;;;11.80;8.10;;;;;;;-10.19;99.73;98733.04;110558;1243;69201;-74
2024/01/10 02:50:46;;;;;;;13.70;8.20;;;;;;;-10.24;97.01;98731.58;110527;1242;68978;-74
2024/01/10 02:53:18;;;;;;;28.50;16.50;;;;;;;-10.26;88.09;98729.16;110524;1240;59679;-74
2024/01/10 02:55:49;;;;;;;29.10;15.70;;;;;;;-10.32;82.62;98728.66;110533;1242;59702;-74
2024/01/10 02:58:21;;;;;;;25.30;14.30;;;;;;;-10.34;83.99;98727.91;110496;1237;72074;-73
2024/01/10 03:00:51;;;;;;;16.10;9.20;;;;;;;-10.31;99.10;98730.05;110535;1242;68532;-74
2024/01/10 03:03:21;;;;;;;9.30;5.60;;;;;;;-10.28;99.68;98729.45;110466;1241;68525;-74
2024/01/10 03:05:54;;;;;;;12.50;8.00;;;;;;;-10.28;96.03;98729.28;110430;1241;59728;-74
2024/01/10 03:08:24;;;;;;;14.40;10.20;;;;;;;-10.30;88.81;98727.38;110428;1239;59704;-74
2024/01/10 03:10:57;;;;;;;22.90;12.00;;;;;;;-10.31;91.62;98731.87;110654;1240;70509;-74
2024/01/10 03:13:31;;;;;;;29.80;18.30;;;;;;;-10.33;87.88;98730.98;110390;1245;68151;-74
2024/01/10 03:16:06;;;;;;;27.20;17.10;;;;;;;-10.37;81.45;98733.38;110465;1242;68284;-74
2024/01/10 03:18:37;;;;;;;31.60;18.20;;;;;;;-10.40;80.13;98727.89;110391;1243;59696;-74
2024/01/10 03:21:09;;;;;;;18.60;12.00;;;;;;;-10.41;80.47;98728.36;110450;1242;59708;-74
2024/01/10 03:23:40;;;;;;;15.10;9.10;;;;;;;-10.42;81.52;98729.35;110427;1238;71380;-74
2024/01/10 03:26:10;;;;;;;14.10;8.30;;;;;;;-10.43;87.92;98734.04;110397;1247;68703;-74
2024/01/10 03:28:43;;;;;;;11.80;6.70;;;;;;;-10.42;100.00;98735.26;110270;1243;68541;-71
2024/01/10 03:31:13;;;;;;;15.00;8.80;;;;;;;-10.42;99.17;98729.68;110361;1243;59678;-74
2024/01/10 03:33:45;;;;;;;5.70;4.90;;;;;;;-10.45;94.84;98726.55;110336;1243;59681;-75
2024/01/10 03:36:17;;;;;;;16.50;11.60;;;;;;;-10.46;100.00;98730.75;110376;1245;71419;-74
2024/01/10 03:38:46;;;;;;;9.50;8.10;;;;;;;-10.50;100.00;98725.75;110474;1241;69264;-74
2024/01/10 03:41:17;;;;;;;8.60;6.00;;;;;;;-10.54;99.96;98726.46;110344;1245;68532;-75
2024/01/10 03:43:47;;;;;;;22.00;13.10;;;;;;;-10.59;99.51;98725.96;110397;1241;59708;-74
2024/01/10 03:46:17;;;;;;;;;;;;;;;-10.63;100.00;98725.84;110482;1239;59630;-74
2024/01/10 03:48:48;;;;;;;11.20;6.80;;;;;;;-10.64;100.00;98724.61;110601;1241;70765;-74
2024/01/10 03:51:21;;;;;;;6.00;4.70;;;;;;;-10.66;100.00;98717.98;110232;1239;69274;-74
2024/01/10 03:53:55;;;;;;;6.30;4.30;;;;;;;-10.67;100.00;98718.47;110490;1240;69267;-74
2024/01/10 03:56:26;;;;;;;14.40;8.80;;;;;;;-10.68;96.85;98723.64;110204;1240;60064;-75
2024/01/10 03:58:58;;;;;;;13.70;8.60;;;;;;;-10.67;98.37;98721.16;110390;1242;59708;-74
2024/01/10 04:01:30;;;;;;;18.20;10.60;;;;;;;-10.67;97.52;98719.48;110372;1242;71397;-75
2024/01/10 04:04:00;;;;;;;10.80;6.40;;;;;;;-10.68;88.80;98718.41;110424;1241;69302;-74
2024/01/10 04:06:30;;;;;;;15.00;9.70;;;;;;;-10.70;93.87;98718.36;110498;1242;68342;-74
2024/01/10 04:09:01;;;;;;;16.30;10.00;;;;;;;-10.70;99.02;98721.06;110354;1241;59730;-74
2024/01/10 04:11:31;;;;;;;12.20;7.00;;;;;;;-10.71;98.96;98727.27;110346;1241;59737;-74
2024/01/10 04:14:02;;;;;;;9.00;6.10;;;;;;;-10.73;99.59;98728.02;110353;1243;71202;-75
2024/01/10 04:16:33;;;;;;;7.40;5.30;;;;;;;-10.75;98.42;98726.13;110362;1248;68381;-75
2024/01/10 04:19:03;;;;;;;14.40;9.80;;;;;;;-10.78;97.60;98726.03;110406;1239;69545;-74
2024/01/10 04:21:35;;;;;;;10.70;6.50;;;;;;;-10.79;96.16;98729.38;110431;1244;59737;-74
2024/01/10 04:24:05;;;;;;;10.60;6.50;;;;;;;-10.81;98.13;98727.81;110362;1241;59648;-71
2024/01/10 04:26:36;;;;;;;8.40;6.60;;;;;;;-10.81;100.00;98728.48;110354;1241;70559;-73
2024/01/10 04:29:06;;;;;;;8.60;6.10;;;;;;;-10.79;100.00;98730.89;110386;1242;69272;-73
2024/01/10 04:31:38;;;;;;;5.70;4.20;;;;;;;-10.79;100.00;98737.10;110362;1241;69451;-73
2024/01/10 04:34:08;;;;;;;20.70;14.00;;;;;;;-10.77;100.00;98741.71;110326;1242;59743;-73
2024/01/10 04:36:38;;;;;;;19.70;10.70;;;;;;;-10.75;100.00;98739.42;110351;1242;59861;-73
2024/01/10 04:39:09;;;;;;;22.50;13.80;;;;;;;-10.72;100.00;98741.55;110408;1242;71207;-73
2024/01/10 04:41:40;;;;;;;14.30;9.50;;;;;;;-10.70;100.00;98739.58;110379;1246;69324;-73
2024/01/10 04:44:10;;;;;;;12.70;8.10;;;;;;;-10.70;100.00;98745.48;110475;1242;69304;-74
2024/01/10 04:46:41;;;;;;;11.40;7.30;;;;;;;-10.71;100.00;98748.83;110462;1241;59737;-74
2024/01/10 04:49:11;;;;;;;22.30;11.80;;;;;;;-10.73;100.00;98749.77;110468;1241;59763;-73
2024/01/10 04:51:41;;;;;;;9.80;7.00;;;;;;;-10.74;100.00;98752.77;110406;1239;71394;-73
2024/01/10 04:54:11;;;;;;;16.60;10.40;;;;;;;-10.76;100.00;98753.39;110407;1247;69242;-73
2024/01/10 04:56:41;;;;;;;10.70;6.80;;;;;;;-10.79;100.00;98754.48;110364;1241;69257;-73
2024/01/10 04:59:12;;;;;;;14.80;10.30;;;;;;;-10.80;100.00;98751.58;110536;1241;59689;-73
2024/01/10 05:01:42;;;;;;;12.40;7.90;;;;;;;-10.80;97.46;98754.93;110494;1240;59662;-74
2024/01/10 05:04:12;;;;;;;19.50;11.20;;;;;;;-10.78;100.00;98754.14;110437;1241;71238;-74
2024/01/10 05:06:42;;;;;;;16.80;9.80;;;;;;;-10.75;100.00;98759.31;110379;1241;69174;-74
2024/01/10 05:09:13;;;;;;;10.50;8.80;;;;;;;-10.72;100.00;98762.95;110276;1242;67472;-74
2024/01/10 05:11:47;;;;;;;11.30;7.00;;;;;;;-10.73;100.00;98762.05;110336;1241;59683;-73
2024/01/10 05:14:19;;;;;;;11.90;6.10;;;;;;;-10.72;100.00;98764.95;110520;1241;59705;-74
2024/01/10 05:16:49;;;;;;;8.80;5.60;;;;;;;-10.72;100.00;98764.30;110463;1241;71368;-74
2024/01/10 05:19:19;;;;;;;7.20;4.90;;;;;;;-10.74;100.00;98764.89;110340;1241;69911;-74
2024/01/10 05:21:48;;;;;;;8.60;6.40;;;;;;;-10.73;100.00;98767.60;110366;1242;67553;-74
2024/01/10 05:24:19;;;;;;;9.40;6.10;;;;;;;-10.75;100.00;98763.86;110376;1241;59733;-74
2024/01/10 05:26:51;;;;;;;10.50;5.90;;;;;;;-10.75;100.00;98767.40;110344;1242;59688;-74
2024/01/10 05:29:23;;;;;;;18.40;11.60;;;;;;;-10.76;100.00;98763.48;110345;1238;71539;-74
2024/01/10 05:31:54;;;;;;;9.90;6.70;;;;;;;-10.78;100.00;98762.23;110366;1242;69254;-74
2024/01/10 05:34:23;;;;;;;7.90;5.10;;;;;;;-10.80;100.00;98762.02;110424;1240;69091;-74
2024/01/10 05:36:53;;;;;;;9.70;5.90;;;;;;;-10.82;100.00;98759.58;110338;1241;59731;-75
2024/01/10 05:39:24;;;;;;;18.30;10.40;;;;;;;-10.84;100.00;98761.20;110339;1241;59676;-74
2024/01/10 05:41:54;;;;;;;21.00;10.00;;;;;;;-10.83;100.00;98765.14;110342;1241;71428;-73
2024/01/10 05:44:23;;;;;;;16.90;9.90;;;;;;;-10.81;100.00;98764.19;110494;1242;68539;-74
2024/01/10 05:46:53;;;;;;;15.40;9.30;;;;;;;-10.81;100.00;98766.19;110404;1240;68530;-74
2024/01/10 05:49:23;;;;;;;;;;;;;;;-10.81;100.00;98767.02;110493;1242;59599;-74
2024/01/10 05:51:53;;;;;;;9.30;7.00;;;;;;;-10.84;100.00;98766.27;110563;1242;59673;-74
2024/01/10 05:54:22;;;;;;;14.00;10.90;;;;;;;-10.87;100.00;98769.70;110391;1241;72144;-74
2024/01/10 05:56:52;;;;;;;21.60;13.30;;;;;;;-10.91;100.00;98772.09;110341;1241;69726;-74
2024/01/10 05:59:21;;;;;;;14.00;8.10;;;;;;;-10.93;100.00;98775.55;110351;1242;69234;-74
2024/01/10 06:01:55;;;;;;;19.80;10.90;;;;;;;-10.93;100.00;98778.23;110331;1241;59693;-74
2024/01/10 06:04:27;;;;;;;13.30;9.90;;;;;;;-10.95;99.44;98775.48;110289;1241;59684;-74
2024/01/10 06:07:02;;;;;;;17.20;10.60;;;;;;;-10.96;98.55;98777.66;110311;1241;71500;-74
2024/01/10 06:09:31;;;;;;;12.70;9.90;;;;;;;-10.97;94.71;98775.75;110494;1240;69832;-74
2024/01/10 06:12:00;;;;;;;16.20;10.30;;;;;;;-10.97;95.78;98777.61;110506;1241;69860;-73
2024/01/10 06:14:29;;;;;;;12.50;10.00;;;;;;;-10.97;95.95;98780.45;110484;1238;59750;-74
2024/01/10 06:17:01;;;;;;;13.70;7.60;;;;;;;-10.95;100.00;98784.08;110524;1241;59688;-73
2024/01/10 06:19:33;;;;;;;18.80;12.90;;;;;;;-10.92;100.00;98780.13;110495;1241;72023;-74
2024/01/10 06:22:03;;;;;;;15.10;8.20;;;;;;;-10.91;100.00;98782.70;110468;1241;69310;-74
2024/01/10 06:24:32;;;;;;;11.90;8.00;;;;;;;-10.90;100.00;98784.41;110455;1246;69873;-75
2024/01/10 06:27:02;;;;;;;9.00;7.60;;;;;;;-10.88;100.00;98787.02;110252;1244;59712;-75
2024/01/10 06:29:31;;;;;;;14.20;8.40;;;;;;;-10.85;100.00;98784.92;110473;1241;59746;-73
2024/01/10 06:32:01;;;;;;;18.00;10.20;;;;;;;-10.82;100.00;98786.20;110450;1242;71304;-74
2024/01/10 06:34:30;;;;;;;17.30;11.60;;;;;;;-10.79;100.00;98784.30;110605;1241;69698;-73
2024/01/10 06:36:59;;;;;;;21.80;13.60;;;;;;;-10.73;100.00;98785.47;110581;1245;68843;-74
2024/01/10 06:39:29;;;;;;;26.10;16.50;;;;;;;-10.66;100.00;98793.11;110527;1241;59692;-74
2024/01/10 06:41:59;;;;;;;21.90;12.70;;;;;;;-10.61;100.00;98796.48;110541;1241;59590;-74
2024/01/10 06:44:28;;;;;;;26.10;16.40;;;;;;;-10.57;100.00;98793.59;110597;1245;70627;-74
2024/01/10 06:46:58;;;;;;;22.40;15.20;;;;;;;-10.52;99.65;98795.42;110683;1238;68491;-73
2024/01/10 06:49:28;;;;;;;31.90;19.40;;;;;;;-10.45;99.71;98798.89;110512;1240;69909;-74
2024/01/10 06:52:00;;;;;;;19.90;12.30;;;;;;;-10.39;99.62;98795.52;110499;1240;59739;-73
2024/01/10 06:54:30;;;;;;;24.00;14.50;;;;;;;-10.33;100.00;98794.20;111153;1239;59685;-73
2024/01/10 06:57:00;;;;;;;30.50;18.30;;;;;;;-10.27;100.00;98796.40;111352;1240;70795;-74
2024/01/10 06:59:30;;;;;;;27.60;15.30;;;;;;;-10.19;100.00;98799.13;111287;1238;69016;-75
2024/01/10 07:02:01;;;;;;;25.30;13.60;;;;;;;-10.08;100.00;98801.33;111283;1242;68891;-74
2024/01/10 07:04:32;;;;;;;26.90;13.20;;;;;;;-9.95;100.00;98798.52;111376;1238;59688;-75
2024/01/10 07:07:03;;;;;;;23.40;15.40;;;;;;;-9.80;100.00;98798.47;111108;1238;59636;-74
2024/01/10 07:09:34;;;;;;;39.60;22.20;;;;;;;-9.59;100.00;98802.48;110972;1240;71659;-75
2024/01/10 07:12:06;;;;;;;28.90;17.80;;;;;;;-9.12;100.00;98799.23;110792;1241;69230;-74
2024/01/10 07:14:35;;;;;;;28.80;19.00;;;;;;;-8.44;100.00;98798.23;110625;1242;69504;-74
2024/01/10 07:17:05;;;;;;;41.80;23.50;;;;;;;-7.73;99.18;98797.53;110518;1239;59717;-74
2024/01/10 07:19:35;;;;;;;38.20;22.40;;;;;;;-7.05;95.56;98797.70;110646;1238;59730;-75
2024/01/10 07:22:08;;;;;;;58.50;37.30;;;;;;;-6.37;91.77;98795.85;110559;1238;71363;-74
2024/01/10 07:24:37;;;;;;;46.90;28.50;;;;;;;-5.73;87.37;98792.56;110435;1240;69207;-75
2024/01/10 07:27:07;;;;;;;32.90;20.90;;;;;;;-5.11;85.57;98791.98;110424;1240;68352;-74
2024/01/10 07:29:37;;;;;;;57.20;37.00;;;;;;;-4.46;79.88;98793.67;110438;1240;59785;-75
2024/01/10 07:32:11;;;;;;;39.30;24.00;;;;;;;-3.93;77.14;98790.00;110450;1240;59690;-75
2024/01/10 07:34:41;;;;;;;37.80;24.20;;;;;;;-3.27;73.59;98784.92;110453;1238;72358;-74
2024/01/10 07:37:11;;;;;;;54.20;38.70;;;;;;;-2.83;67.90;98782.16;110559;1247;69249;-75
2024/01/10 07:39:40;;;;;;;37.50;27.20;;;;;;;-2.44;69.02;98787.02;110581;1239;69272;-75
2024/01/10 07:42:10;;;;;;;43.60;30.70;;;;;;;-2.42;63.00;98789.23;110547;1239;60183;-75
2024/01/10 07:44:39;;;;;;;41.00;28.10;;;;;;;-2.42;62.41;98788.21;110548;1238;59726;-75
2024/01/10 07:47:08;;;;;;;46.00;31.00;;;;;;;-2.11;60.49;98788.73;110538;1238;70641;-75
2024/01/10 07:49:38;;;;;;;34.00;21.40;;;;;;;-1.55;59.04;98788.31;110482;1248;69183;-75
2024/01/10 07:52:07;;;;;;;36.60;24.50;;;;;;;-1.34;56.81;98785.01;110475;1248;69227;-75
2024/01/10 07:54:38;;;;;;;38.60;26.20;;;;;;;-1.45;57.92;98785.21;110539;1238;59753;-75
2024/01/10 07:57:07;;;;;;;34.90;24.90;;;;;;;-1.50;56.38;98786.08;110584;1241;59663;-75
2024/01/10 07:59:36;;;;;;;31.80;22.70;;;;;;;-1.42;54.29;98776.47;110541;1238;71985;-75
2024/01/10 08:02:05;;;;;;;31.60;23.60;;;;;;;-1.01;55.58;98782.13;110424;1240;70029;-75
2024/01/10 08:04:35;;;;;;;33.90;23.80;;;;;;;-0.07;56.91;98782.88;110487;1248;69174;-75
2024/01/10 08:07:04;;;;;;;26.50;19.30;;;;;;;0.38;54.49;98779.56;110387;1241;59670;-75
2024/01/10 08:09:34;;;;;;;28.10;19.00;;;;;;;0.89;57.40;98775.03;110373;1239;59670;-75
2024/01/10 08:12:05;;;;;;;24.80;18.30;;;;;;;1.39;52.24;98774.37;110330;1238;71653;-75
2024/01/10 08:14:34;;;;;;;28.10;19.10;;;;;;;1.06;49.57;98772.59;110344;1242;68696;-75
2024/01/10 08:17:04;;;;;;;16.70;14.00;;;;;;;0.79;49.24;98776.35;110421;1242;69393;-75
2024/01/10 08:19:33;;;;;;;23.80;15.70;;;;;;;0.92;49.45;98772.08;110417;1241;59750;-75
2024/01/10 08:22:04;;;;;;;22.90;15.60;;;;;;;0.63;48.90;98777.38;110388;1241;59605;-75
2024/01/10 08:24:34;;;;;;;22.50;13.80;;;;;;;0.74;48.70;98778.30;110362;1241;69865;-75
2024/01/10 08:27:03;;;;;;;18.40;13.40;;;;;;;0.98;48.32;98776.81;110283;1241;69289;-75
2024/01/10 08:29:33;;;;;;;17.50;13.70;;;;;;;0.42;46.98;98779.84;110103;1244;68730;-75
2024/01/10 08:32:03;;;;;;;24.80;17.30;;;;;;;1.10;47.37;98780.42;110360;1241;59731;-75
2024/01/10 08:34:33;;;;;;;24.50;17.90;;;;;;;0.90;46.97;98780.85;110239;1241;59674;-75
2024/01/10 08:37:03;;;;;;;29.10;20.30;;;;;;;0.95;47.64;98780.45;110264;1241;71419;-75
2024/01/10 08:39:33;;;;;;;21.70;17.20;;;;;;;1.49;47.48;98784.88;110237;1241;69674;-76
2024/01/10 08:42:02;;;;;;;23.30;16.60;;;;;;;1.49;46.22;98789.88;110253;1245;69310;-75
2024/01/10 08:44:32;;;;;;;23.30;16.20;;;;;;;1.86;46.50;98787.21;110303;1241;59753;-75
2024/01/10 08:47:01;;;;;;;18.10;13.90;;;;;;;2.39;44.68;98784.79;110282;1241;59698;-76
2024/01/10 08:49:30;;;;;;;19.30;15.20;;;;;;;2.49;44.77;98788.56;110299;1241;71948;-76
2024/01/10 08:52:00;;;;;;;20.40;14.90;;;;;;;1.99;43.93;98790.30;110248;1240;68585;-76
2024/01/10 08:54:30;;;;;;;18.70;13.50;;;;;;;2.05;43.56;98788.45;110126;1245;69962;-76
2024/01/10 08:57:00;;;;;;;18.30;13.40;;;;;;;2.36;43.43;98786.38;110269;1241;60052;-76
2024/01/10 08:59:30;;;;;;;15.70;12.00;;;;;;;3.03;42.50;98785.44;110328;1241;59715;-76
2024/01/10 09:02:00;;;;;;;15.00;11.70;;;;;;;2.64;41.12;98782.61;110264;1241;70670;-75
2024/01/10 09:04:29;;;;;;;20.90;14.40;;;;;;;2.98;41.21;98777.63;110151;1242;69105;-74
2024/01/10 09:07:02;;;;;;;19.00;13.30;;;;;;;3.98;41.09;98774.34;110410;1241;69303;-76
2024/01/10 09:09:31;;;;;;;17.70;13.30;;;;;;;4.09;40.44;98774.06;110372;1241;59732;-76
2024/01/10 09:12:01;;;;;;;18.60;13.70;;;;;;;4.62;41.70;98772.00;110540;1241;59635;-75
2024/01/10 09:14:31;;;;;;;13.90;11.40;;;;;;;5.06;40.00;98765.23;110473;1241;71606;-76
2024/01/10 09:17:03;;;;;;;14.00;11.20;;;;;;;5.48;39.63;98763.63;110423;1241;69846;-76
2024/01/10 09:19:32;;;;;;;15.20;11.20;;;;;;;5.33;37.56;98760.11;110596;1242;69103;-74
2024/01/10 09:22:02;;;;;;;13.00;10.00;;;;;;;5.18;37.89;98757.60;110497;1238;59690;-75
2024/01/10 09:24:32;;;;;;;;;;;;;;;6.09;37.94;98754.44;110425;1248;59682;-75
2024/01/10 09:27:02;;;;;;;15.20;11.60;;;;;;;5.68;36.17;98750.38;110357;1241;70426;-75
2024/01/10 09:29:32;;;;;;;12.10;9.80;;;;;;;5.64;35.57;98745.59;110357;1241;68612;-75
2024/01/10 09:32:02;;;;;;;14.40;11.10;;;;;;;5.30;36.18;98747.38;110385;1241;69121;-75
2024/01/10 09:34:32;;;;;;;14.00;11.20;;;;;;;5.80;35.74;98746.90;110355;1248;59752;-75
2024/01/10 09:37:02;;;;;;;14.00;10.80;;;;;;;4.51;36.01;98744.65;110411;1241;59688;-75
2024/01/10 09:39:32;;;;;;;14.00;11.60;;;;;;;4.61;36.26;98743.98;110354;1240;72336;-75
2024/01/10 09:42:01;;;;;;;18.70;12.80;;;;;;;5.20;35.92;98746.15;110401;1241;69658;-75
2024/01/10 09:44:33;;;;;;;17.60;13.40;;;;;;;5.59;35.60;98744.95;110333;1249;69107;-75
2024/01/10 09:47:03;;;;;;;13.60;11.50;;;;;;;4.10;36.81;98745.36;110354;1241;59675;-75
2024/01/10 09:49:33;;;;;;;15.90;12.40;;;;;;;5.11;36.52;98740.16;110398;1241;59682;-75
2024/01/10 09:52:04;;;;;;;16.90;11.40;;;;;;;6.38;36.14;98738.20;110348;1241;70833;-75
2024/01/10 09:54:37;;;;;;;13.80;11.40;;;;;;;5.90;34.19;98735.27;110459;1241;69584;-75
2024/01/10 09:57:09;;;;;;;14.20;10.70;;;;;;;6.18;35.14;98741.83;110496;1241;69400;-75
2024/01/10 09:59:43;;;;;;;14.20;10.70;;;;;;;6.96;35.79;98737.87;110559;1243;59741;-75
2024/01/10 10:02:16;;;;;;;11.50;9.10;;;;;;;7.76;34.13;98731.84;110514;1241;59747;-76
2024/01/10 10:05:05;;;;;;;16.20;9.90;;;;;;;7.72;31.00;98729.21;110282;1241;71922;-75
2024/01/10 10:07:48;;;;;;;13.10;9.60;;;;;;;8.72;32.58;98723.27;110276;1241;69259;-73
2024/01/10 10:10:18;;;;;;;10.90;8.70;;;;;;;9.07;30.37;98725.16;110262;1241;69677;-75
2024/01/10 10:12:53;;;;;;;12.70;9.20;;;;;;;9.38;30.34;98718.99;110242;1241;59732;-75
2024/01/10 10:15:26;;;;;;;9.40;7.20;;;;;;;9.87;29.64;98719.77;110308;1241;59679;-76
2024/01/10 10:17:55;;;;;;;7.40;5.80;;;;;;;10.04;29.40;98716.48;110267;1240;71735;-76
2024/01/10 10:20:35;;;;;;;9.20;6.60;;;;;;;9.53;27.72;98712.70;110309;1242;68457;-74
2024/01/10 10:23:06;;;;;;;8.40;5.60;;;;;;;9.52;26.47;98707.36;110346;1241;69168;-75
2024/01/10 10:25:38;;;;;;;7.30;5.30;;;;;;;9.78;28.09;98710.81;110271;1241;59766;-75
2024/01/10 10:28:07;;;;;;;6.10;4.10;;;;;;;10.18;27.87;98706.05;110311;1241;59707;-75
2024/01/10 10:30:46;;;;;;;6.00;4.20;;;;;;;10.59;26.16;98698.39;110267;1241;71013;-74
2024/01/10 10:33:17;;;;;;;;;;;;;;;9.13;25.17;98698.41;110317;1241;67317;-74
2024/01/10 10:35:46;;;;;;;7.40;5.40;;;;;;;8.43;26.10;98691.50;110324;1242;70078;-74
2024/01/10 10:38:22;;;;;;;10.50;6.90;;;;;;;8.19;25.86;98688.39;110251;1241;59758;-74
2024/01/10 10:40:52;;;;;;;9.20;6.40;;;;;;;8.30;27.02;98692.58;110352;1241;59692;-74
2024/01/10 10:43:22;;;;;;;;;;;;;;;8.40;25.55;98690.59;110247;1241;71409;-75
2024/01/10 10:45:56;;;;;;;5.10;3.80;;;;;;;7.84;24.76;98689.28;110320;1242;69056;-75
2024/01/10 10:48:26;;;;;;;7.50;4.60;;;;;;;7.21;25.60;98686.98;110263;1241;69906;-74
2024/01/10 10:51:15;;;;;;;7.30;5.90;;;;;;;7.91;26.21;98683.07;110316;1241;59754;-74
2024/01/10 10:53:47;;;;;;;9.40;6.90;;;;;;;8.29;25.92;98679.60;110265;1241;59692;-75
2024/01/10 10:56:17;;;;;;;10.00;8.10;;;;;;;8.24;26.33;98677.01;110281;1241;71963;-75
2024/01/10 10:58:46;;;;;;;;;;;;;;;7.97;26.74;98670.54;110281;1241;69656;-74
2024/01/10 11:01:17;;;;;;;11.10;8.50;;;;;;;7.77;27.71;98670.66;110238;1241;68419;-76
2024/01/10 11:03:47;;;;;;;9.20;7.00;;;;;;;8.15;26.95;98665.44;110365;1241;59749;-74
2024/01/10 11:06:18;;;;;;;11.50;8.90;;;;;;;9.25;27.72;98666.05;110299;1238;59756;-75
2024/01/10 11:09:03;;;;;;;10.10;8.00;;;;;;;9.55;26.23;98663.37;110384;1241;71972;-74
2024/01/10 11:12:02;;;;;;;12.50;9.70;;;;;;;8.78;26.62;98659.53;110489;1241;69627;-74
2024/01/10 11:14:47;;;;;;;16.70;12.20;;;;;;;8.78;26.79;98658.81;110507;1243;69676;-75
2024/01/10 11:17:44;;;;;;;12.50;10.90;;;;;;;9.08;27.29;98654.84;110381;1241;59685;-74
2024/01/10 11:20:39;;;;;;;14.20;9.90;;;;;;;8.90;26.23;98659.48;110398;1241;59691;-75
2024/01/10 11:23:40;;;;;;;13.20;9.80;;;;;;;8.90;26.76;98652.39;110370;1248;71260;-76
2024/01/10 11:26:10;;;;;;;12.70;10.10;;;;;;;9.95;27.40;98651.45;110326;1242;68883;-75
2024/01/10 11:28:40;;;;;;;12.30;9.30;;;;;;;10.74;27.02;98651.20;110444;1242;69625;-74
2024/01/10 11:31:09;;;;;;;12.80;10.00;;;;;;;9.76;25.52;98647.00;110423;1241;59707;-74
2024/01/10 11:33:49;;;;;;;12.60;9.70;;;;;;;10.22;26.14;98640.52;110402;1240;59676;-75